createdAt,value
2022-12-19T00:03:12.537Z,2.90
2022-12-19T00:06:34.419Z,3.17
2022-12-19T00:09:57.709Z,3.22
2022-12-19T00:13:19.803Z,3.08
2022-12-19T00:16:41.601Z,3.10
2022-12-19T00:20:03.431Z,3.33
2022-12-19T00:23:25.326Z,3.50
2022-12-19T00:26:48.537Z,2.75
2022-12-19T00:30:12.352Z,3.17
2022-12-19T00:33:34.500Z,3.13
2022-12-19T00:36:59.144Z,2.80
2022-12-19T00:40:20.826Z,3.33
2022-12-19T00:43:47.019Z,3.42
2022-12-19T00:47:08.770Z,3.22
2022-12-19T00:50:30.705Z,3.40
2022-12-19T00:53:54.632Z,3.00
2022-12-19T00:57:16.451Z,3.35
2022-12-19T01:00:39.583Z,3.05
2022-12-19T01:07:47.881Z,2.63
2022-12-19T01:11:13.306Z,3.65
2022-12-19T01:14:33.977Z,3.40
2022-12-19T01:17:57.039Z,4.05
2022-12-19T01:21:19.051Z,3.20
2022-12-19T01:24:40.920Z,3.50
2022-12-19T01:28:02.957Z,3.85
2022-12-19T01:31:24.969Z,3.30
2022-12-19T01:34:48.117Z,3.25
2022-12-19T01:38:13.836Z,3.50
2022-12-19T01:41:36.221Z,3.90
2022-12-19T01:45:32.005Z,3.47
2022-12-19T01:48:56.722Z,3.03
2022-12-19T01:52:23.529Z,3.20
2022-12-19T01:55:45.800Z,3.22
2022-12-19T01:59:10.654Z,3.75
2022-12-19T02:02:36.748Z,3.22
2022-12-19T02:06:00.975Z,3.60
2022-12-19T02:09:24.551Z,4.18
2022-12-19T02:12:47.540Z,3.53
2022-12-19T02:16:21.302Z,3.67
2022-12-19T02:20:21.910Z,3.50
2022-12-19T02:24:16.541Z,2.97
2022-12-19T02:28:24.231Z,3.78
2022-12-19T02:31:54.250Z,3.57
2022-12-19T02:35:25.435Z,3.45
2022-12-19T02:38:52.136Z,3.50
2022-12-19T02:42:21.510Z,3.20
2022-12-19T02:45:46.125Z,2.95
2022-12-19T02:49:09.720Z,2.95
2022-12-19T02:52:47.001Z,2.63
2022-12-19T02:56:29.411Z,3.03
2022-12-19T03:00:03.527Z,4.85
2022-12-19T03:03:40.728Z,4.13
2022-12-19T03:07:10.345Z,3.30
2022-12-19T03:10:37.851Z,4.63
2022-12-19T03:14:04.048Z,5.60
2022-12-19T03:17:27.357Z,3.10
2022-12-19T03:20:53.357Z,3.47
2022-12-19T03:24:18.872Z,3.20
2022-12-19T03:27:41.673Z,5.18
2022-12-19T03:31:05.499Z,3.13
2022-12-19T03:34:32.804Z,4.97
2022-12-19T03:37:58.270Z,2.92
2022-12-19T03:41:44.392Z,2.80
2022-12-19T03:45:07.947Z,2.80
2022-12-19T03:48:36.206Z,2.72
2022-12-19T03:52:12.444Z,2.45
2022-12-19T03:55:42.640Z,2.30
2022-12-19T03:59:09.348Z,3.10
2022-12-19T04:02:35.401Z,3.60
2022-12-19T04:05:58.440Z,3.50
2022-12-19T04:09:22.935Z,2.70
2022-12-19T04:12:49.749Z,3.50
2022-12-19T04:16:21.015Z,3.70
2022-12-19T04:19:49.321Z,3.50
2022-12-19T04:23:19.150Z,2.45
2022-12-19T04:26:42.947Z,2.13
2022-12-19T04:30:09.198Z,3.20
2022-12-19T04:33:32.380Z,2.53
2022-12-19T04:36:54.408Z,3.65
2022-12-19T04:40:16.422Z,1.90
2022-12-19T04:43:38.225Z,2.20
2022-12-19T04:47:00.052Z,3.00
2022-12-19T04:50:23.297Z,2.35
2022-12-19T04:53:44.760Z,2.90
2022-12-19T04:57:06.472Z,3.67
2022-12-19T05:00:28.275Z,2.72
2022-12-19T05:03:54.329Z,3.67
2022-12-19T05:07:21.834Z,3.58
2022-12-19T05:10:43.898Z,2.50
2022-12-19T05:14:15.746Z,3.67
2022-12-19T05:17:37.885Z,4.55
2022-12-19T05:21:00.099Z,4.50
2022-12-19T05:24:23.240Z,3.60
2022-12-19T05:27:45.322Z,3.55
2022-12-19T05:31:09.188Z,5.40
2022-12-19T05:34:30.845Z,4.80
2022-12-19T05:37:52.763Z,3.63
2022-12-19T05:41:17.741Z,3.35
2022-12-19T05:44:39.610Z,3.33
2022-12-19T05:48:01.749Z,3.65
2022-12-19T05:51:23.966Z,4.88
2022-12-19T05:54:45.925Z,4.57
2022-12-19T05:58:09.057Z,5.15
2022-12-19T06:01:32.585Z,4.70
2022-12-19T06:04:54.578Z,3.97
2022-12-19T06:08:16.378Z,3.22
2022-12-19T06:11:38.305Z,3.10
2022-12-19T06:15:01.496Z,2.95
2022-12-19T06:18:23.508Z,2.35
2022-12-19T06:21:48.453Z,3.45
2022-12-19T06:25:11.691Z,3.10
2022-12-19T06:28:34.941Z,3.53
2022-12-19T06:31:58.225Z,4.20
2022-12-19T06:35:20.194Z,4.75
2022-12-19T06:38:41.959Z,3.40
2022-12-19T06:42:21.228Z,3.75
2022-12-19T06:49:08.952Z,3.20
2022-12-19T06:52:30.738Z,3.85
2022-12-19T06:55:56.815Z,3.30
2022-12-19T06:59:18.867Z,4.57
2022-12-19T07:02:43.716Z,3.63
2022-12-19T07:06:08.299Z,4.95
2022-12-19T07:09:31.874Z,2.90
2022-12-19T07:12:53.563Z,5.93
2022-12-19T07:16:15.716Z,6.78
2022-12-19T07:19:38.415Z,5.55
2022-12-19T07:23:03.350Z,4.07
2022-12-19T07:26:25.355Z,5.30
2022-12-19T07:29:47.214Z,4.38
2022-12-19T07:33:11.106Z,4.80
2022-12-19T07:36:33.775Z,7.25
2022-12-19T07:39:57.324Z,6.40
2022-12-19T07:43:19.541Z,6.88
2022-12-19T07:46:41.317Z,5.75
2022-12-19T07:50:03.088Z,7.45
2022-12-19T07:53:25.679Z,5.63
2022-12-19T07:56:52.676Z,6.32
2022-12-19T08:00:15.327Z,6.57
2022-12-19T08:03:37.373Z,7.82
2022-12-19T08:06:59.197Z,6.63
2022-12-19T08:10:22.989Z,5.95
2022-12-19T08:13:47.187Z,5.30
2022-12-19T08:17:25.073Z,4.47
2022-12-19T08:20:47.903Z,4.90
2022-12-19T08:24:10.530Z,6.32
2022-12-19T08:27:32.137Z,4.63
2022-12-19T08:30:55.473Z,4.55
2022-12-19T08:34:17.597Z,4.60
2022-12-19T08:37:39.995Z,4.70
2022-12-19T08:41:02.086Z,5.78
2022-12-19T08:44:24.070Z,4.97
2022-12-19T08:47:47.320Z,6.40
2022-12-19T08:51:09.991Z,5.40
2022-12-19T08:54:32.301Z,5.55
2022-12-19T08:57:54.535Z,5.18
2022-12-19T09:01:19.431Z,4.45
2022-12-19T09:05:57.668Z,4.53
2022-12-19T09:08:25.741Z,3.50
2022-12-19T09:11:48.420Z,3.92
2022-12-19T09:15:11.005Z,3.70
2022-12-19T09:18:33.209Z,4.85
2022-12-19T09:21:56.987Z,4.93
2022-12-19T09:25:19.255Z,3.90
2022-12-19T09:28:42.590Z,3.47
2022-12-19T09:32:04.388Z,3.92
2022-12-19T09:35:30.325Z,4.45
2022-12-19T09:38:55.891Z,5.85
2022-12-19T09:42:53.190Z,5.38
2022-12-19T09:46:19.279Z,5.22
2022-12-19T09:49:43.234Z,5.97
2022-12-19T09:53:13.593Z,5.53
2022-12-19T09:56:46.268Z,4.65
2022-12-19T10:00:13.129Z,5.80
2022-12-19T10:03:40.517Z,7.30
2022-12-19T10:07:11.331Z,6.55
2022-12-19T10:12:40.779Z,8.13
2022-12-19T10:14:53.533Z,10.35
2022-12-19T10:18:44.185Z,6.55
2022-12-19T10:22:18.716Z,7.82
2022-12-19T10:25:52.850Z,7.45
2022-12-19T10:29:49.588Z,9.52
2022-12-19T10:33:20.915Z,9.13
2022-12-19T10:37:23.264Z,8.73
2022-12-19T10:40:31.770Z,12.73
2022-12-19T10:44:02.534Z,9.73
2022-12-19T10:47:26.092Z,8.48
2022-12-19T10:50:48.433Z,9.52
2022-12-19T10:54:10.795Z,10.65
2022-12-19T10:57:32.807Z,8.85
2022-12-19T11:01:11.502Z,9.18
2022-12-19T11:04:37.395Z,15.50
2022-12-19T11:08:05.238Z,13.98
2022-12-19T11:12:35.778Z,10.40
2022-12-19T11:20:28.430Z,8.95
2022-12-19T11:29:19.607Z,12.07
2022-12-19T11:29:35.298Z,11.10
2022-12-19T11:30:47.112Z,10.85
2022-12-19T11:34:16.917Z,13.77
2022-12-19T11:37:43.704Z,10.93
2022-12-19T11:41:18.021Z,9.00
2022-12-19T11:44:46.437Z,9.93
2022-12-19T11:48:16.972Z,8.55
2022-12-19T11:51:47.184Z,9.38
2022-12-19T11:55:19.520Z,9.25
2022-12-19T11:58:54.285Z,8.88
2022-12-19T12:02:48.251Z,8.90
2022-12-19T12:06:14.287Z,15.18
2022-12-19T12:12:32.202Z,10.30
2022-12-19T12:24:51.696Z,10.10
2022-12-19T12:31:21.569Z,10.38
2022-12-19T12:31:39.253Z,9.82
2022-12-19T12:31:52.736Z,9.13
2022-12-19T12:31:58.649Z,7.05
2022-12-19T12:35:33.434Z,9.07
2022-12-19T12:41:06.181Z,10.23
2022-12-19T12:44:33.468Z,10.95
2022-12-19T12:47:55.465Z,9.00
2022-12-19T12:51:19.404Z,12.02
2022-12-19T12:54:44.311Z,12.88
2022-12-19T12:58:12.146Z,11.18
2022-12-19T13:01:38.308Z,11.60
2022-12-19T13:05:02.128Z,11.25
2022-12-19T13:08:38.317Z,11.40
2022-12-19T13:12:22.040Z,11.82
2022-12-19T13:15:45.903Z,11.27
2022-12-19T13:19:22.573Z,13.10
2022-12-19T13:23:04.177Z,11.25
2022-12-19T13:26:52.529Z,12.13
2022-12-19T13:30:19.462Z,12.85
2022-12-19T13:33:47.269Z,13.27
2022-12-19T13:39:49.009Z,12.75
2022-12-19T13:41:45.480Z,9.90
2022-12-19T13:45:11.217Z,12.38
2022-12-19T13:48:37.914Z,12.20
2022-12-19T13:52:01.175Z,13.02
2022-12-19T13:55:23.686Z,13.73
2022-12-19T13:58:49.303Z,14.68
2022-12-19T14:02:22.011Z,13.90
2022-12-19T14:06:17.778Z,16.77
2022-12-19T14:11:31.445Z,15.88
2022-12-19T14:13:50.471Z,14.77
2022-12-19T14:17:20.968Z,11.57
2022-12-19T14:22:07.369Z,12.90
2022-12-19T14:24:25.361Z,14.20
2022-12-19T14:28:17.826Z,14.43
2022-12-19T14:31:58.708Z,16.40
2022-12-19T14:36:07.678Z,18.83
2022-12-19T14:39:22.264Z,21.65
2022-12-19T14:51:20.239Z,19.35
2022-12-19T14:54:04.328Z,17.98
2022-12-19T14:58:53.971Z,38.33
2022-12-19T15:01:56.683Z,30.35
2022-12-19T15:05:20.591Z,21.77
2022-12-19T15:11:00.746Z,27.30
2022-12-19T15:14:49.481Z,24.52
2022-12-19T15:16:31.726Z,16.33
2022-12-19T15:19:53.722Z,18.73
2022-12-19T15:23:19.953Z,15.73
2022-12-19T15:26:49.437Z,19.40
2022-12-19T15:30:18.070Z,17.75
2022-12-19T15:33:53.842Z,24.08
2022-12-19T15:37:22.410Z,28.88
2022-12-19T15:40:44.373Z,31.27
2022-12-19T15:44:11.487Z,17.35
2022-12-19T15:47:35.354Z,19.60
2022-12-19T15:50:57.370Z,24.40
2022-12-19T15:54:47.785Z,28.27
2022-12-19T15:58:05.969Z,24.52
2022-12-19T16:01:32.212Z,38.85
2022-12-19T16:05:03.271Z,44.95
2022-12-19T16:08:26.322Z,31.95
2022-12-19T16:11:48.627Z,35.92
2022-12-19T16:15:16.749Z,30.23
2022-12-19T16:18:40.830Z,30.33
2022-12-19T16:22:03.193Z,25.98
2022-12-19T16:25:33.293Z,18.25
2022-12-19T16:28:55.163Z,22.92
2022-12-19T16:32:17.548Z,13.60
2022-12-19T16:36:03.528Z,22.35
2022-12-19T16:39:22.959Z,17.77
2022-12-19T16:42:45.511Z,14.10
2022-12-19T16:46:08.908Z,19.00
2022-12-19T16:49:34.312Z,17.30
2022-12-19T16:52:58.616Z,15.18
2022-12-19T16:56:26.281Z,13.50
2022-12-19T16:59:49.718Z,16.85
2022-12-19T17:03:27.534Z,16.25
2022-12-19T17:06:50.255Z,18.35
2022-12-19T17:10:14.419Z,13.60
2022-12-19T17:13:36.121Z,14.77
2022-12-19T17:16:59.805Z,17.42
2022-12-19T17:20:25.287Z,12.98
2022-12-19T17:23:47.622Z,16.02
2022-12-19T17:27:10.719Z,17.23
2022-12-19T17:30:33.000Z,15.60
2022-12-19T17:33:58.047Z,13.02
2022-12-19T17:37:20.002Z,12.48
2022-12-19T17:40:42.236Z,14.27
2022-12-19T17:44:05.901Z,21.45
2022-12-19T17:47:30.477Z,14.98
2022-12-19T17:50:52.983Z,19.65
2022-12-19T17:54:14.865Z,11.57
2022-12-19T17:57:39.785Z,11.10
2022-12-19T18:01:02.978Z,13.90
2022-12-19T18:04:26.463Z,13.30
2022-12-19T18:07:48.538Z,12.27
2022-12-19T18:11:19.213Z,12.40
2022-12-19T18:14:41.668Z,10.98
2022-12-19T18:18:05.598Z,11.00
2022-12-19T18:21:27.539Z,8.85
2022-12-19T18:24:53.044Z,10.15
2022-12-19T18:28:16.068Z,12.52
2022-12-19T18:31:39.458Z,9.93
2022-12-19T18:35:04.508Z,8.55
2022-12-19T18:38:26.245Z,11.82
2022-12-19T18:41:48.809Z,16.20
2022-12-19T18:45:15.283Z,21.00
2022-12-19T18:48:38.918Z,10.68
2022-12-19T18:52:02.316Z,9.45
2022-12-19T18:55:25.724Z,8.38
2022-12-19T18:58:47.424Z,8.88
2022-12-19T19:02:25.139Z,9.43
2022-12-19T19:05:48.036Z,7.95
2022-12-19T19:09:16.047Z,8.30
2022-12-19T19:12:37.981Z,10.07
2022-12-19T19:16:02.156Z,9.60
2022-12-19T19:19:24.274Z,10.63
2022-12-19T19:22:46.578Z,8.95
2022-12-19T19:26:10.056Z,16.80
2022-12-19T19:29:32.324Z,12.98
2022-12-19T19:32:58.541Z,20.15
2022-12-19T19:36:25.329Z,13.75
2022-12-19T19:39:48.011Z,9.45
2022-12-19T19:43:14.388Z,9.02
2022-12-19T19:46:37.647Z,9.82
2022-12-19T19:49:59.832Z,9.30
2022-12-19T19:53:21.999Z,8.85
2022-12-19T19:56:43.738Z,8.73
2022-12-19T20:00:08.697Z,9.43
2022-12-19T20:03:31.033Z,8.00
2022-12-19T20:06:52.593Z,10.23
2022-12-19T20:10:14.383Z,8.10
2022-12-19T20:13:36.366Z,8.15
2022-12-19T20:16:59.324Z,7.60
2022-12-19T20:20:21.543Z,6.97
2022-12-19T20:23:44.665Z,5.78
2022-12-19T20:27:06.499Z,10.02
2022-12-19T20:30:28.466Z,8.98
2022-12-19T20:33:53.286Z,7.43
2022-12-19T20:37:15.960Z,7.40
2022-12-19T20:40:37.927Z,9.02
2022-12-19T20:44:00.060Z,8.88
2022-12-19T20:47:22.150Z,11.52
2022-12-19T20:50:45.408Z,13.38
2022-12-19T20:54:08.766Z,9.77
2022-12-19T20:57:31.356Z,7.40
2022-12-19T21:00:56.330Z,6.15
2022-12-19T21:04:18.579Z,7.20
2022-12-19T21:07:42.242Z,5.70
2022-12-19T21:11:05.629Z,6.53
2022-12-19T21:14:27.670Z,6.15
2022-12-19T21:17:49.702Z,6.65
2022-12-19T21:21:15.416Z,6.57
2022-12-19T21:24:38.769Z,8.65
2022-12-19T21:28:00.970Z,6.28
2022-12-19T21:31:25.601Z,7.07
2022-12-19T21:34:49.708Z,6.35
2022-12-19T21:38:11.642Z,6.55
2022-12-19T21:41:35.260Z,7.07
2022-12-19T21:44:57.245Z,6.07
2022-12-19T21:48:19.007Z,5.93
2022-12-19T21:51:40.949Z,6.35
2022-12-19T21:55:02.885Z,5.97
2022-12-19T21:58:26.271Z,6.15
2022-12-19T22:01:48.539Z,5.82
2022-12-19T22:05:11.032Z,7.25
2022-12-19T22:08:32.660Z,6.07
2022-12-19T22:11:55.027Z,5.38
2022-12-19T22:15:21.091Z,4.55
2022-12-19T22:18:43.380Z,7.28
2022-12-19T22:22:05.444Z,6.65
2022-12-19T22:25:27.288Z,7.13
2022-12-19T22:28:50.835Z,6.55
2022-12-19T22:32:13.975Z,7.68
2022-12-19T22:35:36.101Z,7.28
2022-12-19T22:38:59.367Z,5.30
2022-12-19T22:42:21.192Z,8.40
2022-12-19T22:45:43.304Z,7.28
2022-12-19T22:49:08.981Z,6.20
2022-12-19T22:52:30.699Z,5.72
2022-12-19T22:55:52.428Z,5.38
2022-12-19T22:59:14.254Z,7.22
2022-12-19T23:02:37.158Z,5.82
2022-12-19T23:06:03.264Z,8.13
